Time;durP1;ratioP1;P1;durP2;ratioP2;P2;SDS_P1;SDS_P2;PMS_P1;PMS_P2;Temp;Humidity;BMP_temperature;BMP_pressure;BME280_temperature;BME280_humidity;BME280_pressure;Samples;Min_cycle;Max_cycle;Signal;HPM_P1;HPM_P2
2023/10/11 03:02:15;;;;;;;7.35;5.60;;;21.40;51.50;;;;;;5043710;23;47199;-83
2023/10/11 03:04:41;;;;;;;8.05;5.00;;;21.40;51.50;;;;;;4877412;28;44934;-84
2023/10/11 03:07:21;;;;;;;7.68;5.30;;;21.40;51.50;;;;;;4858532;28;46251;-84
2023/10/11 03:09:47;;;;;;;9.00;5.40;;;21.40;51.60;;;;;;4881903;28;45532;-84
2023/10/11 03:12:26;;;;;;;7.90;5.50;;;21.40;51.50;;;;;;4878520;28;45204;-83
2023/10/11 03:14:54;;;;;;;8.75;5.28;;;21.40;51.50;;;;;;4903019;28;45932;-81
2023/10/11 03:17:20;;;;;;;7.35;5.20;;;21.40;51.50;;;;;;4884052;28;46395;-82
2023/10/11 03:19:49;;;;;;;7.70;5.38;;;21.40;51.50;;;;;;4863686;28;44971;-83
2023/10/11 03:22:21;;;;;;;7.90;5.28;;;21.40;51.50;;;;;;4862511;28;45476;-83
2023/10/11 03:24:53;;;;;;;7.50;5.45;;;21.40;51.50;;;;;;4899907;28;45001;-84
2023/10/11 03:27:20;;;;;;;7.22;5.22;;;21.40;51.50;;;;;;4858639;28;46461;-84
2023/10/11 03:29:46;;;;;;;7.47;5.22;;;21.40;51.50;;;;;;4871953;28;45085;-83
2023/10/11 03:32:13;;;;;;;8.05;5.43;;;21.40;51.50;;;;;;4893244;28;45296;-82
2023/10/11 03:34:38;;;;;;;8.63;5.60;;;21.40;51.50;;;;;;4865161;28;45005;-83
2023/10/11 03:37:10;;;;;;;10.73;5.57;;;21.40;51.50;;;;;;4872012;28;45937;-82
2023/10/11 03:42:14;;;;;;;6.88;4.78;;;21.40;51.50;;;;;;4863367;28;45467;-84
2023/10/11 03:44:40;;;;;;;7.22;4.97;;;21.40;51.50;;;;;;4873922;28;45422;-83
2023/10/11 03:47:08;;;;;;;8.32;5.28;;;21.40;51.40;;;;;;4876925;28;47256;-83
2023/10/11 03:49:47;;;;;;;8.48;5.70;;;21.40;51.40;;;;;;4870089;28;45423;-83
2023/10/11 03:52:19;;;;;;;7.60;4.88;;;21.40;51.50;;;;;;4878791;28;44657;-83
2023/10/11 03:54:47;;;;;;;7.80;5.20;;;21.40;51.40;;;;;;4870610;28;45252;-84
2023/10/11 03:57:17;;;;;;;7.72;5.15;;;21.40;51.40;;;;;;4862761;28;45556;-83
2023/10/11 03:59:48;;;;;;;8.02;5.32;;;21.40;51.50;;;;;;4899911;28;44884;-84
2023/10/11 04:02:16;;;;;;;8.35;5.38;;;21.40;51.50;;;;;;4878349;28;46280;-83
2023/10/11 04:04:43;;;;;;;8.55;5.28;;;21.40;51.40;;;;;;4862047;28;46237;-83
2023/10/11 04:07:12;;;;;;;8.25;5.47;;;21.40;51.50;;;;;;4859033;28;46438;-83
2023/10/11 04:09:39;;;;;;;7.55;4.93;;;21.40;51.40;;;;;;4880422;28;45173;-84
2023/10/11 04:12:05;;;;;;;7.38;5.45;;;21.40;51.40;;;;;;4874367;28;45933;-84
2023/10/11 04:14:43;;;;;;;7.70;5.20;;;21.40;51.40;;;;;;4868494;28;45200;-82
2023/10/11 04:22:57;;;;;;;7.65;5.15;;;21.40;52.00;;;;;;4891984;28;45975;-84
2023/10/11 04:25:24;;;;;;;7.80;5.00;;;21.40;51.40;;;;;;4880885;28;46313;-83
2023/10/11 04:27:55;;;;;;;10.05;5.43;;;21.40;51.40;;;;;;4896571;28;46362;-83
2023/10/11 04:30:26;;;;;;;8.63;5.53;;;21.40;51.40;;;;;;4859956;28;45052;-83
2023/10/11 04:32:56;;;;;;;8.20;5.18;;;21.40;51.40;;;;;;4840926;28;45610;-83
2023/10/11 04:35:25;;;;;;;7.47;5.18;;;21.30;51.40;;;;;;4860275;28;45416;-83
2023/10/11 04:37:54;;;;;;;7.85;5.20;;;21.40;51.40;;;;;;4877818;28;46041;-83
2023/10/11 04:40:34;;;;;;;7.75;4.97;;;21.30;51.30;;;;;;4845029;28;44726;-82
2023/10/11 04:45:50;;;;;;;9.13;5.40;;;21.40;51.40;;;;;;4890860;28;45986;-84
2023/10/11 04:48:18;;;;;;;7.53;5.30;;;21.40;51.40;;;;;;4868066;28;47513;-80
2023/10/11 04:50:49;;;;;;;7.67;5.10;;;21.40;51.40;;;;;;4859895;28;45295;-83
2023/10/11 04:53:18;;;;;;;7.63;5.32;;;21.40;51.40;;;;;;4856669;28;45248;-84
2023/10/11 04:55:58;;;;;;;8.25;5.30;;;21.30;51.30;;;;;;4871272;28;45829;-83
2023/10/11 04:58:51;;;;;;;7.75;4.97;;;21.30;51.30;;;;;;4853340;28;46183;-84
2023/10/11 05:01:22;;;;;;;8.77;5.22;;;21.40;51.40;;;;;;4860697;28;46008;-84
2023/10/11 05:03:59;;;;;;;7.82;5.13;;;21.40;51.40;;;;;;4866475;28;45341;-84
2023/10/11 05:06:31;;;;;;;8.73;5.40;;;21.30;51.30;;;;;;4887458;28;45235;-84
2023/10/11 05:09:13;;;;;;;8.45;5.07;;;21.30;51.30;;;;;;4898924;28;45327;-84
2023/10/11 05:11:50;;;;;;;8.32;5.63;;;21.30;51.30;;;;;;4863538;28;45608;-83
2023/10/11 05:14:36;;;;;;;9.00;5.43;;;21.30;51.30;;;;;;4899101;28;45806;-83
2023/10/11 05:19:55;;;;;;;8.37;5.10;;;21.30;51.30;;;;;;4890205;28;44855;-83
2023/10/11 05:30:35;;;;;;;8.23;5.22;;;21.30;51.30;;;;;;4889215;28;46402;-83
2023/10/11 05:32:58;;;;;;;8.25;5.28;;;21.30;51.30;;;;;;4871731;28;45149;-81
2023/10/11 05:51:32;;;;;;;8.60;5.20;;;21.30;51.20;;;;;;4868170;28;46482;-82
2023/10/11 05:53:59;;;;;;;8.87;5.67;;;21.30;51.30;;;;;;4885708;28;45244;-83
2023/10/11 05:56:25;;;;;;;7.70;5.07;;;21.30;51.30;;;;;;4878079;28;45222;-81
2023/10/11 05:58:53;;;;;;;9.63;5.68;;;21.30;51.20;;;;;;4889841;28;45314;-83
2023/10/11 06:01:23;;;;;;;8.73;5.47;;;21.30;51.30;;;;;;4891098;28;45511;-82
2023/10/11 06:03:55;;;;;;;7.70;5.68;;;21.30;51.30;;;;;;4891357;28;45191;-83
2023/10/11 06:06:26;;;;;;;8.38;5.30;;;21.30;51.30;;;;;;4884861;28;45172;-83
2023/10/11 06:08:52;;;;;;;8.53;5.30;;;21.30;51.30;;;;;;4890710;28;46170;-83
2023/10/11 06:11:19;;;;;;;9.17;5.20;;;21.20;51.20;;;;;;4868994;28;46979;-84
2023/10/11 06:13:46;;;;;;;7.25;5.35;;;21.30;51.30;;;;;;4853780;28;44872;-81
2023/10/11 06:16:14;;;;;;;8.77;5.50;;;21.30;51.30;;;;;;4876233;28;45358;-83
2023/10/11 06:18:39;;;;;;;7.68;4.75;;;21.30;51.30;;;;;;4872224;28;45180;-83
2023/10/11 06:21:33;;;;;;;7.85;5.03;;;21.30;51.20;;;;;;4871235;28;45433;-83
2023/10/11 06:24:04;;;;;;;8.25;5.32;;;21.30;51.20;;;;;;4884687;28;45247;-84
2023/10/11 06:26:52;;;;;;;7.43;4.85;;;21.30;51.30;;;;;;4863856;28;45272;-83
2023/10/11 06:29:18;;;;;;;8.02;5.10;;;21.30;51.30;;;;;;4872457;28;45271;-84
2023/10/11 06:31:44;;;;;;;7.65;5.20;;;21.30;51.30;;;;;;4892040;28;47110;-83
2023/10/11 06:34:19;;;;;;;8.15;5.15;;;21.20;51.20;;;;;;4887961;28;45498;-83
2023/10/11 06:36:51;;;;;;;8.75;5.00;;;21.30;51.30;;;;;;4869469;28;45160;-83
2023/10/11 06:40:07;;;;;;;8.18;5.00;;;21.20;51.20;;;;;;4867275;28;45264;-83
2023/10/11 06:44:59;;;;;;;7.47;5.20;;;21.30;51.20;;;;;;4883210;28;45208;-83
2023/10/11 06:47:26;;;;;;;8.02;5.18;;;21.30;51.20;;;;;;4863133;28;45261;-83
2023/10/11 06:49:56;;;;;;;7.57;5.40;;;21.30;51.30;;;;;;4888485;28;45523;-83
2023/10/11 06:52:30;;;;;;;8.83;5.20;;;21.30;51.60;;;;;;4867510;28;46518;-83
2023/10/11 06:57:41;;;;;;;8.13;5.28;;;21.30;51.20;;;;;;4875799;28;45299;-83
2023/10/11 07:00:20;;;;;;;9.57;5.60;;;21.30;51.30;;;;;;4853629;28;45589;-82
2023/10/11 07:02:54;;;;;;;8.60;5.20;;;21.30;51.30;;;;;;4902954;28;46056;-83
2023/10/11 07:05:20;;;;;;;9.02;5.07;;;21.30;51.30;;;;;;4856775;28;45129;-84
2023/10/11 07:07:52;;;;;;;6.90;4.50;;;21.30;51.20;;;;;;4905364;28;45376;-83
2023/10/11 07:10:28;;;;;;;8.32;4.65;;;21.30;51.30;;;;;;4869624;28;45286;-83
2023/10/11 07:13:05;;;;;;;7.85;4.82;;;21.30;51.30;;;;;;4880020;28;46416;-84
2023/10/11 07:15:37;;;;;;;7.57;4.90;;;21.30;51.30;;;;;;4884415;28;45298;-82
2023/10/11 07:18:08;;;;;;;8.38;4.88;;;21.30;51.30;;;;;;4870270;28;44716;-83
2023/10/11 07:20:47;;;;;;;8.20;4.82;;;21.30;51.30;;;;;;4884041;28;45613;-82
2023/10/11 07:23:19;;;;;;;7.22;4.95;;;21.30;51.30;;;;;;4887058;28;46213;-83
2023/10/11 07:25:47;;;;;;;7.55;4.65;;;21.30;51.30;;;;;;4904795;28;45058;-83
2023/10/11 07:28:18;;;;;;;8.50;4.82;;;21.30;51.30;;;;;;4877960;28;45243;-85
2023/10/11 07:30:44;;;;;;;9.40;4.88;;;21.30;51.20;;;;;;4866617;28;45246;-84
2023/10/11 07:33:12;;;;;;;8.80;5.30;;;21.30;51.20;;;;;;4875513;28;46253;-84
2023/10/11 07:35:46;;;;;;;8.32;5.10;;;21.30;51.20;;;;;;4861081;28;44890;-84
2023/10/11 07:38:14;;;;;;;7.95;4.68;;;21.30;51.30;;;;;;4868839;28;45612;-83
2023/10/11 07:40:46;;;;;;;9.23;4.95;;;21.30;51.30;;;;;;4878155;28;45305;-83
2023/10/11 07:43:16;;;;;;;6.83;4.53;;;21.30;51.30;;;;;;4885984;28;45253;-83
2023/10/11 07:45:48;;;;;;;8.85;5.28;;;21.30;51.30;;;;;;4876950;28;45083;-84
2023/10/11 07:48:18;;;;;;;10.25;4.85;;;21.30;51.30;;;;;;4906182;28;45669;-84
2023/10/11 07:50:46;;;;;;;8.33;4.70;;;21.30;51.20;;;;;;4895663;28;45568;-84
2023/10/11 07:53:13;;;;;;;7.45;4.72;;;21.30;51.20;;;;;;4870536;28;45957;-84
2023/10/11 07:55:45;;;;;;;8.73;5.10;;;21.30;51.20;;;;;;4899343;28;45067;-83
2023/10/11 07:58:11;;;;;;;9.10;4.95;;;21.30;51.20;;;;;;4880989;28;45992;-83
2023/10/11 08:00:41;;;;;;;8.35;4.53;;;21.30;51.20;;;;;;4866281;28;44926;-83
2023/10/11 08:03:11;;;;;;;9.23;4.90;;;21.30;51.20;;;;;;4857903;28;45385;-83
2023/10/11 08:05:45;;;;;;;8.75;4.63;;;21.30;51.20;;;;;;4913186;28;45592;-83
2023/10/11 08:08:13;;;;;;;8.40;4.53;;;21.30;51.20;;;;;;4873525;28;45075;-84
2023/10/11 08:10:44;;;;;;;8.07;4.57;;;21.30;51.20;;;;;;4884442;28;45326;-83
2023/10/11 08:13:23;;;;;;;8.10;4.43;;;21.30;51.20;;;;;;4867750;28;46219;-83
2023/10/11 08:15:59;;;;;;;7.10;4.57;;;21.30;51.30;;;;;;4855622;28;45358;-83
2023/10/11 08:18:27;;;;;;;7.43;4.50;;;21.30;51.30;;;;;;4872775;28;45609;-83
2023/10/11 08:20:53;;;;;;;7.18;4.63;;;21.30;51.20;;;;;;4886611;28;45351;-83
2023/10/11 08:23:29;;;;;;;7.05;4.45;;;21.30;51.20;;;;;;4884980;28;45412;-83
2023/10/11 08:25:56;;;;;;;7.45;4.60;;;21.30;51.20;;;;;;4861299;28;45868;-83
2023/10/11 08:28:28;;;;;;;8.23;4.50;;;21.30;51.20;;;;;;4904561;28;45169;-83
2023/10/11 08:30:58;;;;;;;6.83;4.23;;;21.30;51.20;;;;;;4874125;28;45851;-83
2023/10/11 08:33:30;;;;;;;7.72;4.50;;;21.30;51.20;;;;;;4903860;28;46247;-83
2023/10/11 08:35:56;;;;;;;6.65;4.25;;;21.30;51.20;;;;;;4851693;28;44672;-84
2023/10/11 08:38:24;;;;;;;7.77;4.67;;;21.30;51.20;;;;;;4873391;28;45973;-84
2023/10/11 08:40:57;;;;;;;9.50;5.13;;;21.30;51.30;;;;;;4872233;28;46780;-83
2023/10/11 08:43:28;;;;;;;7.13;4.70;;;21.30;51.20;;;;;;4857426;28;46229;-83
2023/10/11 08:46:01;;;;;;;6.95;4.50;;;21.30;51.20;;;;;;4884164;28;45289;-83
2023/10/11 08:48:27;;;;;;;6.45;4.07;;;21.30;51.30;;;;;;4873464;28;45346;-83
2023/10/11 08:50:55;;;;;;;7.90;4.38;;;21.30;51.20;;;;;;4870106;28;45270;-84
2023/10/11 08:53:21;;;;;;;8.70;4.50;;;21.30;51.30;;;;;;4866297;28;46195;-83
2023/10/11 08:55:55;;;;;;;8.30;4.80;;;21.30;51.20;;;;;;4862604;28;45285;-83
2023/10/11 08:58:23;;;;;;;7.63;4.27;;;21.30;51.20;;;;;;4869398;28;45418;-83
2023/10/11 09:00:55;;;;;;;7.88;4.20;;;21.30;51.30;;;;;;4897700;28;45385;-84
2023/10/11 09:03:23;;;;;;;7.03;4.35;;;21.30;51.30;;;;;;4882122;28;46469;-83
2023/10/11 09:05:58;;;;;;;7.28;4.22;;;21.30;51.20;;;;;;4869256;28;45193;-83
2023/10/11 09:08:35;;;;;;;7.03;4.40;;;21.30;51.30;;;;;;4888523;28;45564;-83
2023/10/11 09:11:30;;;;;;;7.80;4.35;;;21.30;51.20;;;;;;4880265;28;45462;-83
2023/10/11 09:14:29;;;;;;;7.03;4.93;;;21.30;51.30;;;;;;4873072;28;46805;-84
2023/10/11 09:16:57;;;;;;;8.00;4.18;;;21.30;51.20;;;;;;4890119;28;45227;-83
2023/10/11 09:19:24;;;;;;;7.03;4.40;;;21.30;51.20;;;;;;4881186;28;45189;-83
2023/10/11 09:22:03;;;;;;;7.80;4.45;;;21.30;51.30;;;;;;4896501;28;45672;-83
2023/10/11 09:24:29;;;;;;;8.43;4.70;;;21.30;51.30;;;;;;4856935;28;45161;-83
2023/10/11 09:29:43;;;;;;;6.70;4.25;;;21.30;51.30;;;;;;4887519;28;45056;-83
2023/10/11 09:32:09;;;;;;;7.88;4.28;;;21.30;51.20;;;;;;4881554;28;45141;-83
2023/10/11 09:34:41;;;;;;;6.93;3.90;;;21.30;51.30;;;;;;4879311;28;46213;-82
2023/10/11 09:37:33;;;;;;;7.95;4.35;;;21.30;51.30;;;;;;4864183;28;45242;-83
2023/10/11 09:40:08;;;;;;;8.33;4.27;;;21.30;51.20;;;;;;4889441;28;45380;-83
2023/10/11 09:42:33;;;;;;;8.52;4.35;;;21.30;51.20;;;;;;4887740;28;45849;-85
2023/10/11 09:45:00;;;;;;;9.10;4.30;;;21.30;51.20;;;;;;4872397;28;46043;-82
2023/10/11 09:47:31;;;;;;;8.33;4.50;;;21.30;51.20;;;;;;4893911;28;45082;-83
2023/10/11 09:49:58;;;;;;;8.40;4.57;;;21.40;51.30;;;;;;4884011;28;45317;-83
2023/10/11 09:52:24;;;;;;;7.63;4.35;;;21.40;51.30;;;;;;4872731;28;45306;-83
2023/10/11 09:54:50;;;;;;;6.55;4.43;;;21.40;51.40;;;;;;4894740;28;46575;-83
2023/10/11 09:57:29;;;;;;;7.68;4.53;;;21.30;51.30;;;;;;4887835;28;45348;-82
2023/10/11 10:00:00;;;;;;;6.43;3.87;;;21.40;51.30;;;;;;4886596;28;45516;-83
2023/10/11 10:02:35;;;;;;;6.53;3.90;;;21.30;51.30;;;;;;4897878;28;45503;-83
2023/10/11 10:05:07;;;;;;;6.35;4.18;;;21.30;51.30;;;;;;4890570;28;46485;-83
2023/10/11 10:10:30;;;;;;;9.63;4.53;;;21.30;51.30;;;;;;4903880;28;45165;-82
2023/10/11 10:12:57;;;;;;;6.85;4.30;;;21.40;51.40;;;;;;4902866;28;44869;-82
2023/10/11 10:15:32;;;;;;;6.38;4.10;;;21.40;51.30;;;;;;4879707;28;46223;-83
2023/10/11 10:18:00;;;;;;;8.73;4.10;;;21.40;51.30;;;;;;4871649;28;47189;-82
2023/10/11 10:20:41;;;;;;;6.97;4.03;;;21.40;51.40;;;;;;4895302;28;45348;-83
2023/10/11 10:23:15;;;;;;;6.53;4.13;;;21.40;51.40;;;;;;4922329;28;45129;-84
2023/10/11 10:25:48;;;;;;;7.15;4.10;;;21.40;51.30;;;;;;4888733;28;46792;-83
2023/10/11 10:28:32;;;;;;;6.78;4.10;;;21.40;51.40;;;;;;4865565;28;45237;-83
2023/10/11 10:31:17;;;;;;;6.50;4.20;;;21.40;51.40;;;;;;4879855;28;45756;-83
2023/10/11 10:34:04;;;;;;;6.38;4.18;;;21.30;51.30;;;;;;4856012;28;45160;-83
2023/10/11 10:36:31;;;;;;;6.28;4.03;;;21.40;51.40;;;;;;4871414;28;46470;-83
2023/10/11 10:39:00;;;;;;;7.22;4.28;;;21.40;51.40;;;;;;4896469;28;45792;-83
2023/10/11 10:41:31;;;;;;;6.75;4.30;;;21.40;51.40;;;;;;4881888;28;45749;-84
2023/10/11 10:44:04;;;;;;;7.82;3.60;;;21.40;51.40;;;;;;4873322;28;45234;-83
2023/10/11 10:46:32;;;;;;;6.22;3.58;;;21.40;51.40;;;;;;4898748;28;46339;-83
2023/10/11 10:48:59;;;;;;;6.13;3.50;;;21.40;51.40;;;;;;4891686;28;45604;-83
2023/10/11 10:51:25;;;;;;;6.60;3.93;;;21.40;51.40;;;;;;4873529;28;45707;-83
2023/10/11 10:53:51;;;;;;;6.13;3.90;;;21.50;51.40;;;;;;4888220;28;44830;-83
2023/10/11 10:56:29;;;;;;;8.10;3.90;;;21.40;51.40;;;;;;4887159;28;46137;-81
2023/10/11 10:59:11;;;;;;;7.65;3.67;;;21.40;51.40;;;;;;4891979;28;45652;-82
2023/10/11 11:01:47;;;;;;;5.78;3.70;;;21.50;51.40;;;;;;4857259;28;45283;-83
2023/10/11 11:04:14;;;;;;;7.55;4.13;;;21.40;51.40;;;;;;4877466;28;45327;-82
2023/10/11 11:06:40;;;;;;;6.82;3.70;;;21.40;51.40;;;;;;4905139;28;45618;-83
2023/10/11 11:09:14;;;;;;;5.90;3.78;;;21.50;51.40;;;;;;4878582;28;45044;-83
2023/10/11 11:11:41;;;;;;;6.78;3.83;;;21.40;51.40;;;;;;4889137;28;45437;-83
2023/10/11 11:14:13;;;;;;;7.03;3.97;;;21.50;51.40;;;;;;4889966;28;45501;-82
2023/10/11 11:16:40;;;;;;;7.47;4.13;;;21.50;51.40;;;;;;4864472;28;46208;-83
2023/10/11 11:19:16;;;;;;;6.47;3.83;;;21.40;51.40;;;;;;4891153;28;45564;-83
2023/10/11 11:21:45;;;;;;;9.02;3.83;;;21.50;51.50;;;;;;4849113;28;45383;-82
2023/10/11 11:24:18;;;;;;;6.72;3.83;;;21.50;51.50;;;;;;4887667;28;44823;-82
2023/10/11 11:26:45;;;;;;;6.85;3.95;;;21.50;51.50;;;;;;4856814;28;46377;-81
2023/10/11 11:29:16;;;;;;;7.35;3.58;;;21.50;51.50;;;;;;4880552;28;44720;-82
2023/10/11 11:31:53;;;;;;;8.05;3.80;;;21.50;51.50;;;;;;4877794;28;45653;-83
2023/10/11 11:34:27;;;;;;;6.88;3.80;;;21.50;51.50;;;;;;4873337;28;44969;-82
2023/10/11 11:36:57;;;;;;;5.20;3.20;;;21.50;51.50;;;;;;4892147;28;46471;-83
2023/10/11 11:41:55;;;;;;;7.07;3.90;;;21.50;51.50;;;;;;4889802;28;45363;-83
2023/10/11 11:44:27;;;;;;;6.75;3.78;;;21.50;51.50;;;;;;4855786;28;45110;-83
2023/10/11 11:46:54;;;;;;;6.40;3.72;;;21.50;51.50;;;;;;4894527;28;45705;-82
2023/10/11 11:49:21;;;;;;;4.82;3.22;;;21.50;51.50;;;;;;4888725;28;44887;-83
2023/10/11 11:51:51;;;;;;;6.40;3.40;;;21.50;51.50;;;;;;4886738;28;45402;-83
2023/10/11 11:54:19;;;;;;;7.38;3.63;;;21.50;51.50;;;;;;4886462;28;45798;-82
2023/10/11 11:56:45;;;;;;;6.25;3.35;;;21.50;51.60;;;;;;4883361;28;47149;-83
2023/10/11 11:59:17;;;;;;;6.72;3.40;;;21.50;51.60;;;;;;4887487;28;45194;-83
2023/10/11 12:01:52;;;;;;;7.45;3.20;;;21.50;51.60;;;;;;4888250;28;44816;-84
2023/10/11 12:04:22;;;;;;;8.77;3.35;;;21.50;51.60;;;;;;4885153;28;45009;-84
2023/10/11 12:06:48;;;;;;;6.45;3.53;;;21.50;51.60;;;;;;4886547;28;45316;-84
2023/10/11 12:09:25;;;;;;;6.82;3.55;;;21.50;51.70;;;;;;4889688;28;45454;-84
2023/10/11 12:11:53;;;;;;;5.78;3.45;;;21.50;51.70;;;;;;4888143;28;45491;-84
2023/10/11 12:14:22;;;;;;;5.80;3.15;;;21.50;51.70;;;;;;4884418;28;44844;-84
2023/10/11 12:16:48;;;;;;;6.30;3.23;;;21.50;51.60;;;;;;4879038;28;47143;-83
2023/10/11 12:19:15;;;;;;;7.50;3.63;;;21.50;51.60;;;;;;4867916;28;44938;-83
2023/10/11 12:21:41;;;;;;;6.97;3.40;;;21.50;51.60;;;;;;4894081;28;44828;-84
2023/10/11 12:24:10;;;;;;;7.18;3.00;;;21.50;51.60;;;;;;4871936;28;44776;-83
2023/10/11 12:26:42;;;;;;;6.95;3.38;;;21.60;51.70;;;;;;4874616;28;47027;-84
2023/10/11 12:29:09;;;;;;;5.57;3.20;;;21.60;51.70;;;;;;4859009;28;45456;-83
2023/10/11 12:31:39;;;;;;;6.63;3.17;;;21.50;51.60;;;;;;4889168;28;45211;-83
2023/10/11 12:34:11;;;;;;;7.23;3.57;;;21.60;51.70;;;;;;4887535;28;45265;-84
2023/10/11 12:36:45;;;;;;;6.82;3.28;;;21.60;51.70;;;;;;4884342;28;45920;-84
2023/10/11 12:39:23;;;;;;;6.22;3.20;;;21.50;51.60;;;;;;4903687;28;45214;-83
2023/10/11 12:41:50;;;;;;;5.25;3.03;;;21.50;51.60;;;;;;4883163;28;44971;-84
2023/10/11 12:44:18;;;;;;;4.95;3.15;;;21.50;51.60;;;;;;4868120;29;44884;-84
2023/10/11 12:46:45;;;;;;;5.50;3.10;;;21.60;51.70;;;;;;4856252;28;46897;-84
2023/10/11 12:49:13;;;;;;;6.20;3.28;;;21.60;51.70;;;;;;4858256;28;45291;-84
2023/10/11 12:51:46;;;;;;;4.45;2.75;;;21.60;51.70;;;;;;4884027;28;45055;-83
2023/10/11 12:54:14;;;;;;;7.30;3.28;;;21.60;51.70;;;;;;4889593;28;45282;-83
2023/10/11 12:56:43;;;;;;;6.35;3.15;;;21.50;51.70;;;;;;4886225;28;46150;-84
2023/10/11 12:59:15;;;;;;;5.63;3.13;;;21.50;51.60;;;;;;4877781;28;45486;-85
2023/10/11 13:01:49;;;;;;;5.90;3.17;;;21.60;51.70;;;;;;4858859;28;45322;-84
2023/10/11 13:04:23;;;;;;;4.60;2.85;;;21.60;51.80;;;;;;4897346;28;44799;-84
2023/10/11 13:06:49;;;;;;;5.70;3.00;;;21.50;51.70;;;;;;4869683;28;45533;-84
2023/10/11 13:09:16;;;;;;;6.00;3.13;;;21.60;51.70;;;;;;4850811;29;45334;-84
2023/10/11 13:11:44;;;;;;;5.00;2.95;;;21.60;51.70;;;;;;4876939;28;45253;-85
2023/10/11 13:14:20;;;;;;;6.73;3.10;;;21.60;51.70;;;;;;4876098;29;44807;-85
2023/10/11 13:16:51;;;;;;;5.68;3.03;;;21.60;51.70;;;;;;4878431;28;45139;-85
2023/10/11 13:19:18;;;;;;;7.33;3.03;;;21.60;51.70;;;;;;4865489;28;45217;-84
2023/10/11 13:21:47;;;;;;;4.88;2.70;;;21.60;51.70;;;;;;4860011;28;45438;-84
2023/10/11 13:24:21;;;;;;;6.07;2.97;;;21.60;51.70;;;;;;4894375;28;45243;-85
2023/10/11 13:26:48;;;;;;;5.60;2.70;;;21.60;51.70;;;;;;4871074;28;46430;-84
2023/10/11 13:29:17;;;;;;;7.03;3.03;;;21.60;51.80;;;;;;4887882;28;45609;-85
2023/10/11 13:31:48;;;;;;;5.65;3.00;;;21.50;52.30;;;;;;4856960;28;45606;-84
2023/10/11 13:34:14;;;;;;;5.05;2.90;;;21.60;51.80;;;;;;4895308;28;44784;-84
2023/10/11 13:36:43;;;;;;;5.05;2.88;;;21.60;51.80;;;;;;4863629;28;45965;-85
2023/10/11 13:39:25;;;;;;;4.03;2.70;;;21.60;51.80;;;;;;4864945;28;45583;-85
2023/10/11 13:41:55;;;;;;;4.18;2.50;;;21.60;51.80;;;;;;4881891;28;44851;-85
2023/10/11 13:44:24;;;;;;;5.57;3.28;;;21.60;51.80;;;;;;4879063;29;45094;-84
2023/10/11 13:46:51;;;;;;;5.40;2.97;;;21.60;51.80;;;;;;4864305;28;46304;-84
2023/10/11 13:49:24;;;;;;;5.37;3.10;;;21.60;51.80;;;;;;4882376;28;45138;-85
2023/10/11 13:51:51;;;;;;;4.83;2.70;;;21.60;51.80;;;;;;4879991;28;45282;-84
2023/10/11 13:54:31;;;;;;;4.50;3.00;;;21.60;51.80;;;;;;4878701;29;45383;-84
2023/10/11 13:57:01;;;;;;;6.03;2.90;;;21.60;51.80;;;;;;4882157;28;45264;-85
2023/10/11 13:59:36;;;;;;;5.40;2.70;;;21.60;51.80;;;;;;4872465;28;45742;-85
2023/10/11 14:04:56;;;;;;;6.00;2.90;;;21.60;51.80;;;;;;4887118;28;44932;-84
2023/10/11 14:07:25;;;;;;;5.07;2.65;;;21.60;51.80;;;;;;4862839;29;46167;-84
2023/10/11 14:09:54;;;;;;;5.35;2.97;;;21.60;51.80;;;;;;4847801;28;45435;-85
2023/10/11 14:12:31;;;;;;;5.10;2.70;;;21.60;51.80;;;;;;4881320;28;45462;-84
2023/10/11 14:14:57;;;;;;;5.40;2.95;;;21.60;51.90;;;;;;4881931;28;44802;-85
2023/10/11 14:17:25;;;;;;;6.57;3.03;;;21.60;51.80;;;;;;4891152;28;45235;-85
2023/10/11 14:19:52;;;;;;;4.50;2.60;;;21.60;51.80;;;;;;4887786;28;45184;-84
2023/10/11 14:22:19;;;;;;;5.50;3.00;;;21.60;51.80;;;;;;4869510;28;45232;-85
2023/10/11 14:24:45;;;;;;;5.67;2.77;;;21.60;51.90;;;;;;4856757;28;44881;-84
2023/10/11 14:27:10;;;;;;;4.97;2.80;;;21.60;51.90;;;;;;4848589;29;45401;-85
2023/10/11 14:29:39;;;;;;;5.67;2.70;;;21.60;51.90;;;;;;4871602;28;44966;-84
2023/10/11 14:32:05;;;;;;;5.60;2.85;;;21.60;51.90;;;;;;4877709;28;44792;-85
2023/10/11 14:34:31;;;;;;;4.32;2.75;;;21.60;51.90;;;;;;4885393;28;44889;-83
2023/10/11 14:36:57;;;;;;;4.78;2.60;;;21.60;51.90;;;;;;4896976;28;45194;-85
2023/10/11 14:39:22;;;;;;;5.60;3.20;;;21.60;51.90;;;;;;4904383;28;45036;-85
2023/10/11 14:41:52;;;;;;;4.32;2.60;;;21.60;51.90;;;;;;4863102;28;45352;-84
2023/10/11 14:44:17;;;;;;;4.00;2.43;;;21.60;51.90;;;;;;4874700;28;45568;-84
2023/10/11 14:46:47;;;;;;;5.10;2.63;;;21.60;51.90;;;;;;4865412;28;46243;-84
2023/10/11 14:49:13;;;;;;;5.68;2.85;;;21.70;51.90;;;;;;4896026;28;44880;-84
2023/10/11 14:51:39;;;;;;;4.07;2.38;;;21.70;51.90;;;;;;4889968;28;45079;-85
2023/10/11 14:54:05;;;;;;;5.75;2.97;;;21.70;51.90;;;;;;4853761;29;45006;-85
2023/10/11 14:56:33;;;;;;;6.47;2.70;;;21.60;51.90;;;;;;4869566;28;46494;-83
2023/10/11 14:59:01;;;;;;;4.15;2.78;;;21.70;51.90;;;;;;4884739;28;45641;-85
2023/10/11 15:01:27;;;;;;;5.80;2.90;;;21.60;51.90;;;;;;4861529;28;45565;-82
2023/10/11 15:03:57;;;;;;;4.53;2.33;;;21.60;52.00;;;;;;4864363;28;44915;-85
2023/10/11 15:06:23;;;;;;;4.70;2.70;;;21.60;51.90;;;;;;4858628;28;48570;-84
2023/10/11 15:08:51;;;;;;;4.57;2.53;;;21.70;52.00;;;;;;4867744;28;45316;-85
2023/10/11 15:11:20;;;;;;;5.47;2.50;;;21.60;52.00;;;;;;4863356;28;45453;-84
2023/10/11 15:13:45;;;;;;;4.82;2.55;;;21.60;52.00;;;;;;4868867;28;45414;-83
2023/10/11 15:16:14;;;;;;;4.28;2.40;;;21.70;52.00;;;;;;4855508;29;45940;-83
2023/10/11 15:18:41;;;;;;;6.90;3.00;;;21.70;52.00;;;;;;4878218;28;44684;-85
2023/10/11 15:21:07;;;;;;;4.50;2.75;;;21.70;52.00;;;;;;4857263;28;45653;-84
2023/10/11 15:23:32;;;;;;;5.77;2.90;;;21.70;52.00;;;;;;4847732;28;45475;-85
2023/10/11 15:25:59;;;;;;;4.33;2.47;;;21.70;52.00;;;;;;4862378;28;45329;-84
2023/10/11 15:28:25;;;;;;;4.82;2.50;;;21.70;52.00;;;;;;4883151;28;45266;-84
2023/10/11 15:30:51;;;;;;;3.75;2.58;;;21.70;52.00;;;;;;4837431;28;45622;-83
2023/10/11 15:33:17;;;;;;;4.55;2.53;;;21.70;52.00;;;;;;4880662;28;45805;-82
2023/10/11 15:35:53;;;;;;;4.85;2.40;;;21.70;52.00;;;;;;4873512;28;45540;-83
2023/10/11 15:38:19;;;;;;;4.78;2.70;;;21.70;52.00;;;;;;4888440;28;46607;-84
2023/10/11 15:41:05;;;;;;;3.53;2.30;;;21.70;52.00;;;;;;4872857;28;45835;-85
2023/10/11 15:43:35;;;;;;;4.30;2.47;;;21.70;52.00;;;;;;4867467;28;45253;-83
2023/10/11 15:46:05;;;;;;;5.10;2.47;;;21.70;52.00;;;;;;4861568;28;46609;-82
2023/10/11 15:48:31;;;;;;;4.40;2.50;;;21.70;52.00;;;;;;4873017;28;45302;-83
2023/10/11 15:51:15;;;;;;;4.50;2.73;;;21.70;52.00;;;;;;4884862;28;45437;-84
2023/10/11 15:53:42;;;;;;;4.03;2.53;;;21.80;52.10;;;;;;4884171;28;45318;-83
2023/10/11 15:56:12;;;;;;;3.80;2.50;;;21.70;52.00;;;;;;4867680;29;47115;-84
2023/10/11 15:58:39;;;;;;;4.57;2.50;;;21.70;52.00;;;;;;4843501;28;45228;-84
2023/10/11 16:01:06;;;;;;;4.68;2.50;;;21.70;52.00;;;;;;4881008;28;45306;-83
2023/10/11 16:03:39;;;;;;;4.60;2.70;;;21.80;52.00;;;;;;4868169;28;45479;-83
2023/10/11 16:06:06;;;;;;;4.18;2.45;;;21.80;52.00;;;;;;4863650;28;46928;-84
2023/10/11 16:08:32;;;;;;;5.07;2.53;;;21.80;52.00;;;;;;4891781;28;45333;-84
2023/10/11 16:11:09;;;;;;;3.70;2.50;;;21.70;52.00;;;;;;4877884;28;45250;-83
2023/10/11 16:13:36;;;;;;;3.90;2.50;;;21.70;52.00;;;;;;4870950;28;45799;-83
2023/10/11 16:16:04;;;;;;;4.40;2.63;;;21.70;52.00;;;;;;4895315;28;45987;-83
2023/10/11 16:18:30;;;;;;;5.03;2.72;;;21.70;52.00;;;;;;4864851;28;45585;-84
2023/10/11 16:20:56;;;;;;;5.23;2.40;;;21.80;52.00;;;;;;4865030;28;45006;-84
2023/10/11 16:23:31;;;;;;;4.83;2.23;;;21.70;52.00;;;;;;4876368;28;45526;-84
2023/10/11 16:25:58;;;;;;;3.30;2.45;;;21.80;52.00;;;;;;4859945;28;46173;-84
2023/10/11 16:28:25;;;;;;;5.10;2.42;;;21.80;52.00;;;;;;4891771;28;45892;-83
2023/10/11 16:30:55;;;;;;;3.97;2.50;;;21.80;52.10;;;;;;4889269;28;44960;-83
2023/10/11 16:33:23;;;;;;;3.35;2.08;;;21.80;52.10;;;;;;4875428;28;46681;-85
2023/10/11 16:35:52;;;;;;;5.43;2.60;;;21.80;52.10;;;;;;4874910;28;45973;-84
2023/10/11 16:38:18;;;;;;;4.13;2.30;;;21.80;52.10;;;;;;4877043;28;45404;-83
2023/10/11 16:40:44;;;;;;;4.57;2.20;;;21.80;52.00;;;;;;4853909;28;46405;-83
2023/10/11 16:43:13;;;;;;;4.03;2.65;;;21.80;52.00;;;;;;4893831;28;45408;-83
2023/10/11 16:45:39;;;;;;;3.60;2.40;;;21.80;52.00;;;;;;4858543;28;47256;-83
2023/10/11 16:48:10;;;;;;;3.78;2.40;;;21.80;52.00;;;;;;4859850;28;45427;-84
2023/10/11 16:50:36;;;;;;;4.25;2.58;;;21.70;52.00;;;;;;4856598;28;45286;-83
2023/10/11 16:53:06;;;;;;;3.23;2.33;;;21.80;52.00;;;;;;4862070;28;46399;-83
2023/10/11 16:55:33;;;;;;;4.00;2.37;;;21.80;52.00;;;;;;4874265;28;46241;-83
2023/10/11 16:57:59;;;;;;;4.32;2.33;;;21.80;52.00;;;;;;4891145;28;45467;-84